Terminal Aerodrome Forecast
Issued by NWS Charleston, WV

Current Version | Previous Version | Graphics & Text | Print | Product List | Glossary On
Versions: 1 2 3 4 5 6 7 8 9 10 11 12 13 14 15 16 17 18 19 20 21 22 23
000
FTUS41 KRLX 300800 AAA
TAFBKW
TAF AMD
KBKW 300839Z 3009/3106 00000KT 5SM BR FEW015
     FM301400 VRB03KT P6SM SCT030
     FM301700 30005KT P6SM BKN050
     FM310200 VRB03KT P6SM SCT060=

USA.gov is the U.S. government's official web portal to all federal, state and local government web resources and services.